sensor_id;sensor_type;location;lat;lon;timestamp;temperature;humidity
843;DHT22;407;48.884;9.126;2023-04-01T00:01:10;9.00;99.90
843;DHT22;407;48.884;9.126;2023-04-01T00:03:37;9.00;99.90
843;DHT22;407;48.884;9.126;2023-04-01T00:06:03;8.90;99.90
843;DHT22;407;48.884;9.126;2023-04-01T00:08:29;9.20;99.90
843;DHT22;407;48.884;9.126;2023-04-01T00:10:55;9.00;99.90
843;DHT22;407;48.884;9.126;2023-04-01T00:13:22;9.00;99.90
843;DHT22;407;48.884;9.126;2023-04-01T00:15:48;9.00;99.90
843;DHT22;407;48.884;9.126;2023-04-01T00:18:14;9.10;35.50
843;DHT22;407;48.884;9.126;2023-04-01T00:20:45;9.10;1.00
843;DHT22;407;48.884;9.126;2023-04-01T00:23:12;7.50;1.00
843;DHT22;407;48.884;9.126;2023-04-01T00:25:38;9.10;1.00
843;DHT22;407;48.884;9.126;2023-04-01T00:28:03;9.20;22.00
843;DHT22;407;48.884;9.126;2023-04-01T00:30:29;9.20;99.90
843;DHT22;407;48.884;9.126;2023-04-01T00:32:55;9.20;99.90
843;DHT22;407;48.884;9.126;2023-04-01T00:35:21;9.20;1.00
843;DHT22;407;48.884;9.126;2023-04-01T00:37:47;9.30;1.00
843;DHT22;407;48.884;9.126;2023-04-01T00:40:28;9.30;1.00
843;DHT22;407;48.884;9.126;2023-04-01T00:42:54;9.30;99.90
843;DHT22;407;48.884;9.126;2023-04-01T00:45:35;9.30;99.90
843;DHT22;407;48.884;9.126;2023-04-01T00:48:22;8.90;99.90
843;DHT22;407;48.884;9.126;2023-04-01T00:51:27;9.30;1.00
843;DHT22;407;48.884;9.126;2023-04-01T00:53:56;9.30;1.00
843;DHT22;407;48.884;9.126;2023-04-01T00:56:31;9.30;1.00
843;DHT22;407;48.884;9.126;2023-04-01T00:59:03;9.40;99.90
843;DHT22;407;48.884;9.126;2023-04-01T01:01:30;9.50;99.90
843;DHT22;407;48.884;9.126;2023-04-01T01:03:56;9.40;99.90
843;DHT22;407;48.884;9.126;2023-04-01T01:06:53;9.40;1.00
843;DHT22;407;48.884;9.126;2023-04-01T01:09:33;9.30;99.90
843;DHT22;407;48.884;9.126;2023-04-01T01:12:18;9.30;99.90
843;DHT22;407;48.884;9.126;2023-04-01T01:22:49;9.40;1.00
843;DHT22;407;48.884;9.126;2023-04-01T01:25:35;9.30;22.70
843;DHT22;407;48.884;9.126;2023-04-01T01:28:13;9.40;52.40
843;DHT22;407;48.884;9.126;2023-04-01T01:30:52;9.40;1.00
843;DHT22;407;48.884;9.126;2023-04-01T01:33:31;9.40;1.00
843;DHT22;407;48.884;9.126;2023-04-01T01:36:02;9.50;1.00
843;DHT22;407;48.884;9.126;2023-04-01T01:38:31;9.40;99.90
843;DHT22;407;48.884;9.126;2023-04-01T01:40:59;9.40;1.00
843;DHT22;407;48.884;9.126;2023-04-01T01:43:30;9.30;1.00
843;DHT22;407;48.884;9.126;2023-04-01T01:46:00;9.30;46.10
843;DHT22;407;48.884;9.126;2023-04-01T01:48:29;9.40;99.90
843;DHT22;407;48.884;9.126;2023-04-01T01:50:56;9.40;49.50
843;DHT22;407;48.884;9.126;2023-04-01T01:53:22;9.30;99.90
843;DHT22;407;48.884;9.126;2023-04-01T01:55:48;10.90;82.60
843;DHT22;407;48.884;9.126;2023-04-01T01:58:25;9.40;98.50
843;DHT22;407;48.884;9.126;2023-04-01T02:01:00;9.40;99.90
843;DHT22;407;48.884;9.126;2023-04-01T02:03:30;9.50;99.90
843;DHT22;407;48.884;9.126;2023-04-01T02:05:59;9.50;99.90
843;DHT22;407;48.884;9.126;2023-04-01T02:08:34;9.50;99.90
843;DHT22;407;48.884;9.126;2023-04-01T02:11:04;9.40;99.90
843;DHT22;407;48.884;9.126;2023-04-01T02:13:40;9.50;99.90
843;DHT22;407;48.884;9.126;2023-04-01T02:16:13;9.50;99.90
843;DHT22;407;48.884;9.126;2023-04-01T02:18:41;9.40;99.90
843;DHT22;407;48.884;9.126;2023-04-01T02:21:09;10.80;1.00
843;DHT22;407;48.884;9.126;2023-04-01T02:23:37;9.30;1.00
843;DHT22;407;48.884;9.126;2023-04-01T02:26:06;9.30;1.00
843;DHT22;407;48.884;9.126;2023-04-01T02:28:34;9.20;1.00
843;DHT22;407;48.884;9.126;2023-04-01T02:31:01;9.30;1.00
843;DHT22;407;48.884;9.126;2023-04-01T02:33:28;9.30;99.90
843;DHT22;407;48.884;9.126;2023-04-01T02:35:54;9.40;65.10
843;DHT22;407;48.884;9.126;2023-04-01T02:38:20;8.30;99.90
843;DHT22;407;48.884;9.126;2023-04-01T02:40:49;9.30;99.90
843;DHT22;407;48.884;9.126;2023-04-01T02:43:15;7.80;99.90
843;DHT22;407;48.884;9.126;2023-04-01T02:45:42;9.30;6.40
843;DHT22;407;48.884;9.126;2023-04-01T02:48:08;9.30;92.20
843;DHT22;407;48.884;9.126;2023-04-01T02:50:33;9.30;99.90
843;DHT22;407;48.884;9.126;2023-04-01T02:53:00;9.40;11.00
843;DHT22;407;48.884;9.126;2023-04-01T02:55:26;9.40;1.00
843;DHT22;407;48.884;9.126;2023-04-01T02:57:52;9.90;1.00
843;DHT22;407;48.884;9.126;2023-04-01T03:00:17;9.40;26.70
843;DHT22;407;48.884;9.126;2023-04-01T03:02:43;9.30;99.90
843;DHT22;407;48.884;9.126;2023-04-01T03:05:09;9.40;1.00
843;DHT22;407;48.884;9.126;2023-04-01T03:07:35;9.40;1.00
843;DHT22;407;48.884;9.126;2023-04-01T03:10:01;9.80;1.00
843;DHT22;407;48.884;9.126;2023-04-01T03:12:26;9.30;1.00
843;DHT22;407;48.884;9.126;2023-04-01T03:14:52;9.30;99.90
843;DHT22;407;48.884;9.126;2023-04-01T03:17:18;9.30;99.90
843;DHT22;407;48.884;9.126;2023-04-01T03:19:43;10.20;99.90
843;DHT22;407;48.884;9.126;2023-04-01T03:22:12;9.40;99.90
843;DHT22;407;48.884;9.126;2023-04-01T03:24:37;9.20;99.90
843;DHT22;407;48.884;9.126;2023-04-01T03:27:03;9.20;2.60
843;DHT22;407;48.884;9.126;2023-04-01T03:29:28;9.20;67.00
843;DHT22;407;48.884;9.126;2023-04-01T03:31:54;11.00;99.90
843;DHT22;407;48.884;9.126;2023-04-01T03:34:23;9.10;99.90
843;DHT22;407;48.884;9.126;2023-04-01T03:36:49;9.10;99.90
843;DHT22;407;48.884;9.126;2023-04-01T03:39:14;9.00;99.90
843;DHT22;407;48.884;9.126;2023-04-01T03:41:44;9.00;48.50
843;DHT22;407;48.884;9.126;2023-04-01T03:44:10;9.00;99.90
843;DHT22;407;48.884;9.126;2023-04-01T03:46:36;9.00;84.20
843;DHT22;407;48.884;9.126;2023-04-01T03:49:01;9.00;99.90
843;DHT22;407;48.884;9.126;2023-04-01T03:51:27;9.10;1.00
843;DHT22;407;48.884;9.126;2023-04-01T03:53:53;9.00;1.00
843;DHT22;407;48.884;9.126;2023-04-01T03:56:18;9.10;99.90
843;DHT22;407;48.884;9.126;2023-04-01T03:58:44;10.70;1.00
843;DHT22;407;48.884;9.126;2023-04-01T04:01:18;9.00;1.00
843;DHT22;407;48.884;9.126;2023-04-01T04:03:44;8.90;1.00
843;DHT22;407;48.884;9.126;2023-04-01T04:06:12;8.80;99.90
843;DHT22;407;48.884;9.126;2023-04-01T04:08:38;9.40;1.00
843;DHT22;407;48.884;9.126;2023-04-01T04:11:04;8.80;99.90
843;DHT22;407;48.884;9.126;2023-04-01T04:13:30;8.80;1.00
843;DHT22;407;48.884;9.126;2023-04-01T04:15:56;10.50;1.00
843;DHT22;407;48.884;9.126;2023-04-01T04:18:21;8.70;1.00
843;DHT22;407;48.884;9.126;2023-04-01T04:20:47;8.80;1.00
843;DHT22;407;48.884;9.126;2023-04-01T04:23:15;8.90;99.90
843;DHT22;407;48.884;9.126;2023-04-01T04:25:41;9.00;1.00
843;DHT22;407;48.884;9.126;2023-04-01T04:28:06;9.20;1.00
843;DHT22;407;48.884;9.126;2023-04-01T04:30:32;8.90;49.60
843;DHT22;407;48.884;9.126;2023-04-01T04:32:58;8.80;1.00
843;DHT22;407;48.884;9.126;2023-04-01T04:35:23;8.80;1.00
843;DHT22;407;48.884;9.126;2023-04-01T04:37:49;8.80;1.00
843;DHT22;407;48.884;9.126;2023-04-01T04:40:14;8.80;1.00
843;DHT22;407;48.884;9.126;2023-04-01T04:42:40;8.80;99.90
843;DHT22;407;48.884;9.126;2023-04-01T04:45:06;8.70;1.00
843;DHT22;407;48.884;9.126;2023-04-01T04:47:32;8.70;1.00
843;DHT22;407;48.884;9.126;2023-04-01T04:49:57;8.70;99.90
843;DHT22;407;48.884;9.126;2023-04-01T04:52:23;8.60;99.90
843;DHT22;407;48.884;9.126;2023-04-01T04:54:48;8.50;99.90
843;DHT22;407;48.884;9.126;2023-04-01T04:57:14;9.60;1.00
843;DHT22;407;48.884;9.126;2023-04-01T04:59:40;8.50;99.90
843;DHT22;407;48.884;9.126;2023-04-01T05:02:05;8.50;1.00
843;DHT22;407;48.884;9.126;2023-04-01T05:04:35;8.60;1.00
843;DHT22;407;48.884;9.126;2023-04-01T05:07:00;8.50;1.00
843;DHT22;407;48.884;9.126;2023-04-01T05:09:26;8.50;1.00
843;DHT22;407;48.884;9.126;2023-04-01T05:11:52;8.50;99.90
843;DHT22;407;48.884;9.126;2023-04-01T05:14:18;8.50;1.00
843;DHT22;407;48.884;9.126;2023-04-01T05:16:44;8.60;1.00
843;DHT22;407;48.884;9.126;2023-04-01T05:19:09;8.90;1.00
843;DHT22;407;48.884;9.126;2023-04-01T05:21:35;8.60;1.00
843;DHT22;407;48.884;9.126;2023-04-01T05:24:01;8.50;99.90
843;DHT22;407;48.884;9.126;2023-04-01T05:26:26;8.50;1.00
843;DHT22;407;48.884;9.126;2023-04-01T05:28:52;8.50;99.90
843;DHT22;407;48.884;9.126;2023-04-01T05:31:17;10.10;99.90
843;DHT22;407;48.884;9.126;2023-04-01T05:33:43;8.80;1.00
843;DHT22;407;48.884;9.126;2023-04-01T05:36:14;9.00;53.30
843;DHT22;407;48.884;9.126;2023-04-01T05:38:41;9.10;90.80
843;DHT22;407;48.884;9.126;2023-04-01T05:41:07;10.20;99.90
843;DHT22;407;48.884;9.126;2023-04-01T05:43:38;9.10;99.90
843;DHT22;407;48.884;9.126;2023-04-01T05:46:04;9.10;95.20
843;DHT22;407;48.884;9.126;2023-04-01T05:48:30;9.20;1.00
843;DHT22;407;48.884;9.126;2023-04-01T05:50:56;9.30;1.00
843;DHT22;407;48.884;9.126;2023-04-01T05:53:21;9.30;1.00
843;DHT22;407;48.884;9.126;2023-04-01T05:55:47;9.40;99.90
843;DHT22;407;48.884;9.126;2023-04-01T05:58:13;9.40;99.90
843;DHT22;407;48.884;9.126;2023-04-01T06:00:38;9.40;99.90
843;DHT22;407;48.884;9.126;2023-04-01T06:03:04;9.40;99.90
843;DHT22;407;48.884;9.126;2023-04-01T06:05:37;9.40;1.00
843;DHT22;407;48.884;9.126;2023-04-01T06:08:13;9.50;90.60
843;DHT22;407;48.884;9.126;2023-04-01T06:10:43;9.70;99.90
843;DHT22;407;48.884;9.126;2023-04-01T06:16:19;9.60;99.90
843;DHT22;407;48.884;9.126;2023-04-01T06:18:56;9.60;99.90
843;DHT22;407;48.884;9.126;2023-04-01T06:27:13;10.00;1.00
843;DHT22;407;48.884;9.126;2023-04-01T06:29:47;9.90;1.00
843;DHT22;407;48.884;9.126;2023-04-01T06:38:30;9.80;1.00
843;DHT22;407;48.884;9.126;2023-04-01T06:51:59;9.80;99.90
843;DHT22;407;48.884;9.126;2023-04-01T06:54:31;10.00;1.00
843;DHT22;407;48.884;9.126;2023-04-01T06:57:02;10.00;99.90
843;DHT22;407;48.884;9.126;2023-04-01T06:59:31;10.00;99.90
843;DHT22;407;48.884;9.126;2023-04-01T07:04:40;10.10;1.00
843;DHT22;407;48.884;9.126;2023-04-01T07:09:56;10.00;99.90
843;DHT22;407;48.884;9.126;2023-04-01T07:14:58;9.70;1.00
843;DHT22;407;48.884;9.126;2023-04-01T07:17:31;9.90;1.00
843;DHT22;407;48.884;9.126;2023-04-01T07:20:20;9.90;99.90
843;DHT22;407;48.884;9.126;2023-04-01T07:22:54;9.70;99.90
843;DHT22;407;48.884;9.126;2023-04-01T07:27:57;9.70;1.00
843;DHT22;407;48.884;9.126;2023-04-01T07:30:26;9.70;1.00
843;DHT22;407;48.884;9.126;2023-04-01T07:32:56;9.70;1.00
843;DHT22;407;48.884;9.126;2023-04-01T07:35:55;9.80;1.00
843;DHT22;407;48.884;9.126;2023-04-01T07:41:29;9.70;1.00
843;DHT22;407;48.884;9.126;2023-04-01T07:49:35;10.00;1.00
843;DHT22;407;48.884;9.126;2023-04-01T07:54:56;10.00;1.00
843;DHT22;407;48.884;9.126;2023-04-01T08:00:20;10.20;99.90
843;DHT22;407;48.884;9.126;2023-04-01T08:08:33;10.00;41.00
843;DHT22;407;48.884;9.126;2023-04-01T08:13:57;10.10;59.20
843;DHT22;407;48.884;9.126;2023-04-01T08:22:09;10.70;99.90
843;DHT22;407;48.884;9.126;2023-04-01T08:24:42;10.70;1.00
843;DHT22;407;48.884;9.126;2023-04-01T08:27:41;10.60;1.00
843;DHT22;407;48.884;9.126;2023-04-01T08:30:34;10.60;1.00
843;DHT22;407;48.884;9.126;2023-04-01T08:33:09;10.60;99.90
843;DHT22;407;48.884;9.126;2023-04-01T08:35:56;10.50;1.00
843;DHT22;407;48.884;9.126;2023-04-01T08:38:31;10.50;99.90
843;DHT22;407;48.884;9.126;2023-04-01T08:41:00;10.10;99.90
843;DHT22;407;48.884;9.126;2023-04-01T08:54:43;9.70;99.90
843;DHT22;407;48.884;9.126;2023-04-01T08:57:13;9.80;84.80
843;DHT22;407;48.884;9.126;2023-04-01T08:59:56;9.60;13.20
843;DHT22;407;48.884;9.126;2023-04-01T09:16:18;9.90;1.00
843;DHT22;407;48.884;9.126;2023-04-01T09:27:36;10.60;99.90
843;DHT22;407;48.884;9.126;2023-04-01T09:35:39;10.70;99.90
843;DHT22;407;48.884;9.126;2023-04-01T09:39:13;10.60;16.10
843;DHT22;407;48.884;9.126;2023-04-01T09:44:11;10.30;1.00
843;DHT22;407;48.884;9.126;2023-04-01T09:49:29;10.30;1.00
843;DHT22;407;48.884;9.126;2023-04-01T09:54:44;10.40;1.00
843;DHT22;407;48.884;9.126;2023-04-01T09:57:35;10.50;99.90
843;DHT22;407;48.884;9.126;2023-04-01T10:00:32;10.60;99.90
843;DHT22;407;48.884;9.126;2023-04-01T10:03:16;10.60;1.00
843;DHT22;407;48.884;9.126;2023-04-01T10:06:14;10.50;99.90
843;DHT22;407;48.884;9.126;2023-04-01T10:16:48;10.50;35.20
843;DHT22;407;48.884;9.126;2023-04-01T10:39:08;10.50;99.90
843;DHT22;407;48.884;9.126;2023-04-01T10:50:13;10.40;99.90
843;DHT22;407;48.884;9.126;2023-04-01T11:19:29;11.10;99.90
843;DHT22;407;48.884;9.126;2023-04-01T11:27:36;11.10;99.90
843;DHT22;407;48.884;9.126;2023-04-01T11:30:20;11.20;99.90
843;DHT22;407;48.884;9.126;2023-04-01T11:35:48;11.10;99.90
843;DHT22;407;48.884;9.126;2023-04-01T11:41:44;11.20;99.90
843;DHT22;407;48.884;9.126;2023-04-01T11:44:21;11.20;99.90
843;DHT22;407;48.884;9.126;2023-04-01T11:46:52;11.30;99.90
843;DHT22;407;48.884;9.126;2023-04-01T12:03:38;11.40;99.90
843;DHT22;407;48.884;9.126;2023-04-01T12:12:15;11.50;99.90
843;DHT22;407;48.884;9.126;2023-04-01T12:28:29;11.70;14.20
843;DHT22;407;48.884;9.126;2023-04-01T12:39:21;11.70;1.00
843;DHT22;407;48.884;9.126;2023-04-01T12:41:53;11.70;1.00
843;DHT22;407;48.884;9.126;2023-04-01T12:47:27;11.70;1.00
843;DHT22;407;48.884;9.126;2023-04-01T12:55:48;11.30;1.00
843;DHT22;407;48.884;9.126;2023-04-01T12:58:45;11.20;1.00
843;DHT22;407;48.884;9.126;2023-04-01T13:04:25;11.20;1.00
843;DHT22;407;48.884;9.126;2023-04-01T13:10:01;11.40;1.00
843;DHT22;407;48.884;9.126;2023-04-01T13:21:08;10.80;94.60
843;DHT22;407;48.884;9.126;2023-04-01T13:27:02;10.90;99.90
843;DHT22;407;48.884;9.126;2023-04-01T13:29:43;10.80;99.90
843;DHT22;407;48.884;9.126;2023-04-01T13:32:28;10.80;99.90
843;DHT22;407;48.884;9.126;2023-04-01T13:38:03;11.20;99.90
843;DHT22;407;48.884;9.126;2023-04-01T13:40:52;11.10;99.90
843;DHT22;407;48.884;9.126;2023-04-01T13:52:04;11.10;99.90
843;DHT22;407;48.884;9.126;2023-04-01T14:03:03;10.70;99.90
843;DHT22;407;48.884;9.126;2023-04-01T14:45:45;10.40;1.00
843;DHT22;407;48.884;9.126;2023-04-01T14:51:20;10.40;99.90
843;DHT22;407;48.884;9.126;2023-04-01T14:56:36;10.50;99.90
843;DHT22;407;48.884;9.126;2023-04-01T15:24:20;11.10;99.90
843;DHT22;407;48.884;9.126;2023-04-01T15:29:39;11.30;99.90
843;DHT22;407;48.884;9.126;2023-04-01T15:32:16;11.20;99.90
843;DHT22;407;48.884;9.126;2023-04-01T15:45:34;10.80;99.90
843;DHT22;407;48.884;9.126;2023-04-01T15:48:17;11.10;99.90
843;DHT22;407;48.884;9.126;2023-04-01T15:51:03;11.10;99.90
843;DHT22;407;48.884;9.126;2023-04-01T16:04:37;10.80;99.90
843;DHT22;407;48.884;9.126;2023-04-01T16:09:56;11.00;99.90
843;DHT22;407;48.884;9.126;2023-04-01T16:15:42;11.00;99.90
843;DHT22;407;48.884;9.126;2023-04-01T16:23:37;9.30;99.90
843;DHT22;407;48.884;9.126;2023-04-01T16:28:57;10.70;99.90
843;DHT22;407;48.884;9.126;2023-04-01T16:31:32;10.80;99.90
843;DHT22;407;48.884;9.126;2023-04-01T16:34:16;10.70;99.90
843;DHT22;407;48.884;9.126;2023-04-01T16:36:54;10.80;99.90
843;DHT22;407;48.884;9.126;2023-04-01T16:42:10;10.70;91.10
843;DHT22;407;48.884;9.126;2023-04-01T16:45:15;10.70;99.90
843;DHT22;407;48.884;9.126;2023-04-01T16:47:50;10.70;99.90
843;DHT22;407;48.884;9.126;2023-04-01T16:50:24;10.70;99.90
843;DHT22;407;48.884;9.126;2023-04-01T16:53:07;10.70;99.90
843;DHT22;407;48.884;9.126;2023-04-01T16:55:51;10.80;99.90
843;DHT22;407;48.884;9.126;2023-04-01T17:04:32;10.90;99.90
843;DHT22;407;48.884;9.126;2023-04-01T17:10:00;10.80;99.90
843;DHT22;407;48.884;9.126;2023-04-01T17:20:40;11.00;99.90
843;DHT22;407;48.884;9.126;2023-04-01T17:29:00;10.90;99.90
843;DHT22;407;48.884;9.126;2023-04-01T17:31:44;10.80;99.90
843;DHT22;407;48.884;9.126;2023-04-01T17:42:10;10.90;1.00
843;DHT22;407;48.884;9.126;2023-04-01T17:45:11;10.80;99.90
843;DHT22;407;48.884;9.126;2023-04-01T17:55:51;10.60;99.90
843;DHT22;407;48.884;9.126;2023-04-01T17:58:34;10.40;1.00
843;DHT22;407;48.884;9.126;2023-04-01T18:04:08;10.20;99.90
843;DHT22;407;48.884;9.126;2023-04-01T18:09:13;10.30;1.00
843;DHT22;407;48.884;9.126;2023-04-01T18:20:29;10.10;99.90
843;DHT22;407;48.884;9.126;2023-04-01T18:22:58;10.10;1.00
843;DHT22;407;48.884;9.126;2023-04-01T18:25:34;10.10;99.90
843;DHT22;407;48.884;9.126;2023-04-01T18:29:11;10.00;1.00
843;DHT22;407;48.884;9.126;2023-04-01T18:31:16;10.00;85.20
843;DHT22;407;48.884;9.126;2023-04-01T18:34:14;10.00;1.00
843;DHT22;407;48.884;9.126;2023-04-01T18:39:16;9.90;1.00
843;DHT22;407;48.884;9.126;2023-04-01T18:44:46;10.00;99.90
843;DHT22;407;48.884;9.126;2023-04-01T18:50:21;9.80;41.70
843;DHT22;407;48.884;9.126;2023-04-01T18:55:49;9.60;1.00
843;DHT22;407;48.884;9.126;2023-04-01T18:58:46;9.60;99.90
843;DHT22;407;48.884;9.126;2023-04-01T19:07:42;9.60;1.00
843;DHT22;407;48.884;9.126;2023-04-01T19:13:28;9.50;1.00
843;DHT22;407;48.884;9.126;2023-04-01T19:16:12;9.30;1.00
843;DHT22;407;48.884;9.126;2023-04-01T19:21:57;9.10;1.00
843;DHT22;407;48.884;9.126;2023-04-01T19:24:48;9.00;99.90
843;DHT22;407;48.884;9.126;2023-04-01T19:38:03;9.00;1.00
843;DHT22;407;48.884;9.126;2023-04-01T19:46:49;8.70;1.00
843;DHT22;407;48.884;9.126;2023-04-01T19:55:44;8.70;1.00
843;DHT22;407;48.884;9.126;2023-04-01T19:58:00;8.70;1.00
843;DHT22;407;48.884;9.126;2023-04-01T20:00:39;8.70;1.00
843;DHT22;407;48.884;9.126;2023-04-01T20:14:41;8.90;99.90
843;DHT22;407;48.884;9.126;2023-04-01T20:17:18;9.00;99.90
843;DHT22;407;48.884;9.126;2023-04-01T20:19:59;9.00;1.00
843;DHT22;407;48.884;9.126;2023-04-01T20:25:46;9.20;99.90
843;DHT22;407;48.884;9.126;2023-04-01T20:39:33;9.50;99.90
843;DHT22;407;48.884;9.126;2023-04-01T20:42:13;9.40;99.90
843;DHT22;407;48.884;9.126;2023-04-01T20:47:46;9.40;99.90
843;DHT22;407;48.884;9.126;2023-04-01T20:50:37;9.30;1.00
843;DHT22;407;48.884;9.126;2023-04-01T20:59:21;9.30;1.00
843;DHT22;407;48.884;9.126;2023-04-01T21:07:08;9.20;1.00
843;DHT22;407;48.884;9.126;2023-04-01T21:09:57;9.20;1.00
843;DHT22;407;48.884;9.126;2023-04-01T21:12:53;9.20;95.90
843;DHT22;407;48.884;9.126;2023-04-01T21:15:32;9.30;99.90
843;DHT22;407;48.884;9.126;2023-04-01T21:23:53;9.30;99.90
843;DHT22;407;48.884;9.126;2023-04-01T21:35:08;9.30;99.90
843;DHT22;407;48.884;9.126;2023-04-01T21:38:03;9.30;99.90
843;DHT22;407;48.884;9.126;2023-04-01T21:41:28;9.20;1.00
843;DHT22;407;48.884;9.126;2023-04-01T21:44:22;9.10;99.90
843;DHT22;407;48.884;9.126;2023-04-01T21:47:21;9.20;99.90
843;DHT22;407;48.884;9.126;2023-04-01T22:01:27;9.60;1.00
843;DHT22;407;48.884;9.126;2023-04-01T22:06:42;9.20;99.90
843;DHT22;407;48.884;9.126;2023-04-01T22:09:12;9.20;99.90
843;DHT22;407;48.884;9.126;2023-04-01T22:11:46;9.20;99.90
843;DHT22;407;48.884;9.126;2023-04-01T22:17:02;9.40;99.90
843;DHT22;407;48.884;9.126;2023-04-01T22:22:17;9.40;99.90
843;DHT22;407;48.884;9.126;2023-04-01T22:27:35;9.50;99.90
843;DHT22;407;48.884;9.126;2023-04-01T22:30:11;9.40;99.90
843;DHT22;407;48.884;9.126;2023-04-01T22:32:50;9.40;1.00
843;DHT22;407;48.884;9.126;2023-04-01T22:40:40;9.40;1.00
843;DHT22;407;48.884;9.126;2023-04-01T22:48:41;9.40;99.90
843;DHT22;407;48.884;9.126;2023-04-01T22:56:41;9.60;1.00
843;DHT22;407;48.884;9.126;2023-04-01T22:59:40;9.60;99.90
843;DHT22;407;48.884;9.126;2023-04-01T23:02:28;9.50;99.90
843;DHT22;407;48.884;9.126;2023-04-01T23:05:03;9.60;63.90
843;DHT22;407;48.884;9.126;2023-04-01T23:10:04;9.60;1.00
843;DHT22;407;48.884;9.126;2023-04-01T23:12:32;9.50;99.90
843;DHT22;407;48.884;9.126;2023-04-01T23:15:00;9.60;1.00
843;DHT22;407;48.884;9.126;2023-04-01T23:17:49;9.60;99.90
843;DHT22;407;48.884;9.126;2023-04-01T23:28:43;9.60;99.90
843;DHT22;407;48.884;9.126;2023-04-01T23:34:01;9.50;99.90
843;DHT22;407;48.884;9.126;2023-04-01T23:36:28;9.60;24.80
843;DHT22;407;48.884;9.126;2023-04-01T23:38:55;9.60;1.00
843;DHT22;407;48.884;9.126;2023-04-01T23:41:28;9.50;1.00
843;DHT22;407;48.884;9.126;2023-04-01T23:44:05;9.50;31.30
843;DHT22;407;48.884;9.126;2023-04-01T23:46:34;9.50;99.90
843;DHT22;407;48.884;9.126;2023-04-01T23:49:02;9.50;99.90
843;DHT22;407;48.884;9.126;2023-04-01T23:51:36;9.40;99.10
843;DHT22;407;48.884;9.126;2023-04-01T23:54:10;9.40;99.90
843;DHT22;407;48.884;9.126;2023-04-01T23:56:45;9.20;1.00
843;DHT22;407;48.884;9.126;2023-04-01T23:59:22;9.20;99.90
